createdAt,value
2018-04-11T00:00:20.218Z,2.12
2018-04-11T00:01:20.182Z,2.25
2018-04-11T00:02:20.211Z,2.20
2018-04-11T00:03:20.101Z,1.89
2018-04-11T00:04:20.131Z,2.16
2018-04-11T00:05:20.070Z,2.23
2018-04-11T00:06:20.233Z,2.09
2018-04-11T00:07:20.031Z,2.23
2018-04-11T00:08:20.137Z,2.22
2018-04-11T00:09:19.976Z,2.32
2018-04-11T00:10:20.058Z,2.14
2018-04-11T00:11:19.929Z,2.31
2018-04-11T00:12:20.086Z,2.20
2018-04-11T00:13:19.897Z,2.21
2018-04-11T00:14:19.988Z,2.34
2018-04-11T00:15:19.858Z,2.16
2018-04-11T00:16:19.890Z,2.23
2018-04-11T00:17:19.818Z,2.04
2018-04-11T00:18:19.898Z,2.18
2018-04-11T00:19:19.801Z,1.90
2018-04-11T00:20:19.935Z,2.06
2018-04-11T00:21:19.718Z,2.02
2018-04-11T00:22:19.764Z,2.63
2018-04-11T00:23:19.689Z,2.39
2018-04-11T00:24:19.864Z,2.41
2018-04-11T00:25:19.638Z,2.34
2018-04-11T00:26:19.804Z,2.20
2018-04-11T00:27:19.627Z,2.45
2018-04-11T00:28:19.681Z,2.88
2018-04-11T00:29:19.544Z,2.36
2018-04-11T00:30:19.701Z,2.63
2018-04-11T00:31:19.510Z,2.44
2018-04-11T00:32:19.591Z,2.50
2018-04-11T00:33:19.451Z,2.42
2018-04-11T00:34:19.627Z,2.32
2018-04-11T00:35:19.407Z,2.33
2018-04-11T00:36:19.519Z,2.13
2018-04-11T00:37:19.379Z,2.09
2018-04-11T00:38:19.558Z,2.45
2018-04-11T00:39:19.339Z,2.28
2018-04-11T00:40:19.373Z,2.72
2018-04-11T00:41:19.312Z,2.47
2018-04-11T00:42:19.455Z,2.40
2018-04-11T00:43:19.222Z,2.22
2018-04-11T00:44:19.373Z,2.33
2018-04-11T00:45:19.212Z,2.60
2018-04-11T00:46:19.346Z,2.81
2018-04-11T00:47:19.176Z,2.58
2018-04-11T00:48:19.334Z,2.42
2018-04-11T00:49:19.099Z,2.59
2018-04-11T00:50:19.246Z,2.82
2018-04-11T00:51:19.062Z,2.59
2018-04-11T00:52:19.123Z,2.51
2018-04-11T00:53:19.015Z,2.48
2018-04-11T00:54:19.121Z,2.57
2018-04-11T00:55:18.974Z,2.20
2018-04-11T00:56:19.143Z,2.39
2018-04-11T00:57:18.934Z,2.53
2018-04-11T00:58:19.036Z,2.31
2018-04-11T00:59:18.903Z,2.50
2018-04-11T01:00:18.971Z,2.33
2018-04-11T01:01:18.873Z,2.62
2018-04-11T01:02:18.994Z,2.50
2018-04-11T01:03:18.801Z,2.42
2018-04-11T01:04:18.890Z,2.62
2018-04-11T01:05:18.759Z,3.01
2018-04-11T01:06:18.900Z,2.71
2018-04-11T01:07:18.735Z,2.38
2018-04-11T01:08:18.816Z,2.32
2018-04-11T01:09:18.669Z,3.00
2018-04-11T01:10:18.822Z,2.04
2018-04-11T01:11:18.635Z,2.48
2018-04-11T01:12:19.708Z,2.40
2018-04-11T01:13:18.592Z,2.15
2018-04-11T01:14:18.753Z,1.95
2018-04-11T01:15:18.532Z,2.51
2018-04-11T01:16:18.561Z,2.08
2018-04-11T01:17:18.509Z,2.33
2018-04-11T01:18:18.577Z,2.33
2018-04-11T01:19:18.444Z,2.26
2018-04-11T01:20:18.690Z,2.39
2018-04-11T01:21:18.377Z,1.97
2018-04-11T01:22:18.509Z,1.93
2018-04-11T01:23:18.352Z,2.26
2018-04-11T01:24:18.541Z,2.39
2018-04-11T01:25:18.320Z,2.49
2018-04-11T01:26:18.421Z,2.16
2018-04-11T01:27:18.255Z,2.51
2018-04-11T01:28:18.429Z,2.06
2018-04-11T01:29:18.218Z,2.11
2018-04-11T01:30:18.247Z,2.37
2018-04-11T01:31:18.162Z,2.60
2018-04-11T01:32:18.395Z,2.39
2018-04-11T01:33:18.161Z,2.74
2018-04-11T01:34:18.279Z,2.41
2018-04-11T01:35:18.082Z,2.41
2018-04-11T01:36:18.073Z,2.41
2018-04-11T01:37:18.039Z,2.26
2018-04-11T01:38:18.201Z,2.51
2018-04-11T01:39:18.001Z,2.78
2018-04-11T01:40:17.999Z,2.54
2018-04-11T01:41:17.979Z,2.33
2018-04-11T01:42:19.065Z,2.37
2018-04-11T01:43:17.889Z,2.49
2018-04-11T01:44:18.033Z,2.57
2018-04-11T01:45:17.909Z,2.51
2018-04-11T01:46:17.954Z,2.53
2018-04-11T01:47:17.816Z,2.40
2018-04-11T01:48:17.864Z,2.67
2018-04-11T01:49:17.804Z,2.44
2018-04-11T01:50:18.797Z,2.27
2018-04-11T01:51:17.743Z,2.62
2018-04-11T01:52:18.802Z,2.34
2018-04-11T01:53:17.659Z,2.61
2018-04-11T01:54:17.685Z,2.47
2018-04-11T01:55:17.641Z,2.35
2018-04-11T01:56:17.714Z,2.59
2018-04-11T01:57:17.587Z,2.50
2018-04-11T01:58:17.606Z,2.35
2018-04-11T01:59:17.543Z,2.84
2018-04-11T02:00:17.637Z,2.72
2018-04-11T02:01:17.501Z,2.13
2018-04-11T02:02:17.564Z,2.34
2018-04-11T02:03:17.436Z,2.45
2018-04-11T02:04:17.543Z,2.51
2018-04-11T02:05:17.426Z,2.68
2018-04-11T02:06:17.481Z,2.64
2018-04-11T02:07:17.398Z,2.41
2018-04-11T02:08:17.379Z,2.55
2018-04-11T02:09:17.318Z,2.20
2018-04-11T02:10:17.381Z,2.30
2018-04-11T02:11:17.277Z,2.38
2018-04-11T02:12:17.309Z,2.33
2018-04-11T02:13:17.279Z,2.65
2018-04-11T02:14:17.339Z,2.49
2018-04-11T02:15:17.202Z,2.45
2018-04-11T02:16:17.225Z,2.64
2018-04-11T02:17:17.170Z,2.38
2018-04-11T02:18:17.240Z,2.66
2018-04-11T02:19:17.170Z,2.35
2018-04-11T02:20:17.153Z,2.54
2018-04-11T02:21:17.121Z,2.61
2018-04-11T02:22:17.155Z,2.52
2018-04-11T02:23:17.014Z,2.57
2018-04-11T02:24:17.115Z,2.25
2018-04-11T02:25:16.957Z,2.13
2018-04-11T02:26:17.029Z,2.25
2018-04-11T02:27:16.955Z,2.11
2018-04-11T02:28:17.027Z,2.23
2018-04-11T02:29:16.871Z,2.22
2018-04-11T02:30:16.953Z,2.42
2018-04-11T02:31:16.806Z,2.28
2018-04-11T02:32:16.921Z,2.49
2018-04-11T02:33:16.778Z,2.48
2018-04-11T02:34:16.865Z,2.59
2018-04-11T02:35:16.730Z,2.73
2018-04-11T02:36:16.789Z,2.51
2018-04-11T02:37:16.695Z,2.06
2018-04-11T02:38:16.835Z,2.11
2018-04-11T02:39:16.648Z,2.03
2018-04-11T02:40:16.701Z,2.16
2018-04-11T02:41:16.602Z,1.97
2018-04-11T02:42:16.705Z,1.97
2018-04-11T02:43:16.614Z,1.75
2018-04-11T02:44:16.641Z,2.34
2018-04-11T02:45:16.541Z,2.34
2018-04-11T02:46:16.647Z,2.03
2018-04-11T02:47:16.463Z,2.64
2018-04-11T02:48:16.541Z,2.30
2018-04-11T02:49:16.419Z,2.10
2018-04-11T02:50:16.527Z,1.91
2018-04-11T02:51:16.359Z,2.07
2018-04-11T02:52:16.426Z,1.92
2018-04-11T02:53:16.354Z,2.13
2018-04-11T02:54:16.371Z,1.85
2018-04-11T02:55:16.289Z,1.81
2018-04-11T02:56:16.369Z,1.76
2018-04-11T02:57:16.234Z,1.60
2018-04-11T02:58:16.304Z,1.74
2018-04-11T02:59:16.181Z,1.93
2018-04-11T03:00:16.388Z,1.85
2018-04-11T03:01:16.156Z,1.89
2018-04-11T03:02:16.186Z,2.13
2018-04-11T03:03:16.124Z,1.79
2018-04-11T03:04:16.216Z,1.88
2018-04-11T03:05:16.051Z,1.94
2018-04-11T03:06:16.133Z,1.94
2018-04-11T03:07:15.994Z,1.72
2018-04-11T03:08:16.055Z,2.02
2018-04-11T03:09:15.971Z,2.15
2018-04-11T03:10:16.042Z,2.18
2018-04-11T03:11:15.966Z,2.19
2018-04-11T03:12:15.965Z,1.88
2018-04-11T03:13:15.862Z,2.04
2018-04-11T03:14:15.966Z,1.85
2018-04-11T03:15:15.818Z,2.02
2018-04-11T03:16:15.921Z,2.03
2018-04-11T03:17:15.781Z,1.76
2018-04-11T03:18:15.900Z,1.93
2018-04-11T03:19:15.743Z,1.95
2018-04-11T03:20:15.828Z,2.06
2018-04-11T03:21:15.672Z,2.01
2018-04-11T03:22:15.731Z,1.86
2018-04-11T03:23:15.631Z,1.93
2018-04-11T03:24:15.750Z,1.52
2018-04-11T03:25:15.594Z,1.88
2018-04-11T03:26:15.630Z,2.22
2018-04-11T03:27:15.541Z,1.90
2018-04-11T03:28:15.646Z,1.99
2018-04-11T03:29:15.508Z,1.95
2018-04-11T03:30:15.558Z,2.10
2018-04-11T03:31:15.444Z,1.57
2018-04-11T03:32:15.577Z,1.66
2018-04-11T03:33:15.424Z,1.93
2018-04-11T03:34:15.494Z,2.09
2018-04-11T03:35:15.356Z,2.08
2018-04-11T03:36:15.408Z,3.42
2018-04-11T03:37:15.314Z,0.12
2018-04-11T03:38:16.455Z,5.78
2018-04-11T03:39:15.281Z,5.79
2018-04-11T03:40:15.317Z,5.79
2018-04-11T03:41:15.224Z,5.79
2018-04-11T03:42:15.339Z,5.79
2018-04-11T03:43:15.185Z,5.79
2018-04-11T03:44:15.251Z,5.79
2018-04-11T03:45:15.128Z,5.78
2018-04-11T03:46:16.187Z,5.79
2018-04-11T03:47:15.100Z,5.79
2018-04-11T03:48:15.206Z,5.79
2018-04-11T03:49:15.053Z,5.79
2018-04-11T03:50:16.159Z,5.79
2018-04-11T03:51:15.006Z,5.78
2018-04-11T03:52:15.095Z,5.79
2018-04-11T03:53:14.987Z,5.79
2018-04-11T03:54:15.031Z,5.79
2018-04-11T03:55:14.906Z,5.79
2018-04-11T03:56:15.037Z,5.79
2018-04-11T03:57:14.856Z,5.79
2018-04-11T03:58:14.943Z,5.79
2018-04-11T03:59:14.807Z,5.79
2018-04-11T04:00:14.962Z,5.79
2018-04-11T04:01:14.765Z,5.79
2018-04-11T04:02:14.872Z,5.77
2018-04-11T04:03:14.717Z,5.77
2018-04-11T04:04:14.781Z,5.79
2018-04-11T04:05:14.686Z,5.77
2018-04-11T04:06:15.805Z,5.79
2018-04-11T04:07:14.648Z,5.78
2018-04-11T04:08:14.708Z,5.79
2018-04-11T04:09:14.577Z,5.79
2018-04-11T04:10:14.731Z,5.77
2018-04-11T04:11:14.559Z,5.78
2018-04-11T04:12:14.636Z,5.78
2018-04-11T04:13:14.499Z,5.79
2018-04-11T04:14:14.538Z,5.77
2018-04-11T04:15:14.452Z,5.77
2018-04-11T04:16:14.554Z,5.78
2018-04-11T04:17:14.411Z,5.77
2018-04-11T04:18:14.476Z,5.78
2018-04-11T04:19:14.385Z,5.79
2018-04-11T04:20:14.493Z,5.77
2018-04-11T04:21:14.304Z,5.79
2018-04-11T04:22:14.379Z,5.77
2018-04-11T04:23:14.264Z,5.78
2018-04-11T04:24:14.395Z,5.77
2018-04-11T04:25:14.220Z,5.77
2018-04-11T04:26:14.304Z,5.77
2018-04-11T04:27:14.167Z,5.77
2018-04-11T04:28:14.227Z,5.77
2018-04-11T04:29:14.127Z,5.78
2018-04-11T04:30:14.232Z,5.77
2018-04-11T04:31:14.071Z,5.77
2018-04-11T04:32:14.154Z,5.77
2018-04-11T04:33:14.028Z,5.77
2018-04-11T04:34:14.160Z,5.78
2018-04-11T04:35:13.977Z,5.77
2018-04-11T04:36:14.082Z,5.77
2018-04-11T04:37:13.944Z,5.77
2018-04-11T04:38:14.093Z,5.77
2018-04-11T04:39:13.901Z,5.77
2018-04-11T04:40:13.987Z,5.77
2018-04-11T04:41:13.867Z,5.79
2018-04-11T04:42:13.923Z,5.77
2018-04-11T04:43:13.823Z,5.77
2018-04-11T04:44:13.957Z,5.77
2018-04-11T04:45:13.773Z,5.77
2018-04-11T04:46:13.815Z,5.77
2018-04-11T04:47:13.725Z,5.77
2018-04-11T04:48:13.849Z,5.77
2018-04-11T04:49:13.659Z,5.77
2018-04-11T04:50:13.744Z,5.79
2018-04-11T04:51:13.658Z,5.77
2018-04-11T04:52:13.783Z,5.77
2018-04-11T04:53:13.597Z,5.77
2018-04-11T04:54:13.701Z,5.77
2018-04-11T04:55:13.547Z,5.77
2018-04-11T04:56:13.591Z,5.78
2018-04-11T04:57:13.495Z,5.77
2018-04-11T04:58:13.509Z,5.77
2018-04-11T04:59:13.440Z,5.79
2018-04-11T05:00:13.522Z,5.77
2018-04-11T05:01:13.390Z,5.77
2018-04-11T05:02:13.516Z,5.77
2018-04-11T05:03:13.355Z,5.77
2018-04-11T05:04:13.431Z,5.77
2018-04-11T05:05:13.332Z,5.77
2018-04-11T05:06:14.364Z,5.77
2018-04-11T05:07:13.261Z,5.77
2018-04-11T05:08:14.438Z,5.77
2018-04-11T05:09:13.205Z,5.77
2018-04-11T05:10:13.265Z,5.77
2018-04-11T05:11:13.154Z,5.77
2018-04-11T05:12:13.315Z,5.77
2018-04-11T05:13:13.101Z,5.77
2018-04-11T05:14:13.255Z,5.77
2018-04-11T05:15:13.068Z,5.77
2018-04-11T05:16:13.233Z,5.77
2018-04-11T05:17:13.005Z,5.77
2018-04-11T05:18:13.144Z,5.77
2018-04-11T05:19:12.965Z,5.77
2018-04-11T05:20:13.032Z,5.77
2018-04-11T05:21:12.955Z,5.77
2018-04-11T05:22:13.065Z,5.77
2018-04-11T05:23:12.876Z,5.77
2018-04-11T05:24:12.966Z,5.77
2018-04-11T05:25:12.837Z,5.77
2018-04-11T05:26:12.987Z,5.77
2018-04-11T05:27:12.834Z,5.77
2018-04-11T05:28:12.879Z,5.77
2018-04-11T05:29:12.726Z,5.77
2018-04-11T05:30:12.786Z,5.77
2018-04-11T05:31:12.681Z,5.77
2018-04-11T05:32:12.799Z,5.77
2018-04-11T05:33:12.718Z,5.77
2018-04-11T05:34:12.726Z,5.77
2018-04-11T05:35:12.590Z,5.77
2018-04-11T05:36:12.753Z,5.77
2018-04-11T05:37:12.538Z,5.77
2018-04-11T05:38:12.648Z,5.78
2018-04-11T05:39:12.513Z,5.77
2018-04-11T05:40:12.736Z,5.77
2018-04-11T05:41:12.467Z,5.78
2018-04-11T05:42:12.579Z,5.79
2018-04-11T05:43:12.418Z,5.79
2018-04-11T05:44:12.514Z,5.77
2018-04-11T05:45:12.363Z,5.77
2018-04-11T05:46:12.504Z,5.78
2018-04-11T05:47:12.307Z,5.77
2018-04-11T05:48:12.411Z,5.79
2018-04-11T05:49:12.270Z,5.79
2018-04-11T05:50:12.417Z,5.79
2018-04-11T05:51:12.258Z,5.79
2018-04-11T05:52:12.332Z,5.79
2018-04-11T05:53:12.174Z,5.79
2018-04-11T05:54:12.377Z,5.79
2018-04-11T05:55:12.126Z,5.77
2018-04-11T05:56:12.309Z,5.79
2018-04-11T05:57:12.094Z,5.79
2018-04-11T05:58:12.050Z,5.39
2018-04-11T05:59:12.032Z,5.79
2018-04-11T06:00:12.043Z,5.79
2018-04-11T06:01:11.989Z,5.79
2018-04-11T06:02:11.958Z,5.79
2018-04-11T06:03:12.099Z,5.77
2018-04-11T06:04:11.925Z,5.79
2018-04-11T06:05:11.882Z,5.79
2018-04-11T06:06:11.871Z,5.79
2018-04-11T06:07:11.829Z,5.79
2018-04-11T06:08:11.825Z,5.79
2018-04-11T06:09:11.791Z,5.79
2018-04-11T06:10:11.777Z,5.78
2018-04-11T06:11:11.789Z,5.79
2018-04-11T06:12:11.853Z,5.78
2018-04-11T06:13:11.709Z,5.79
2018-04-11T06:14:11.661Z,5.79
2018-04-11T06:15:11.661Z,5.79
2018-04-11T06:16:11.626Z,5.77
2018-04-11T06:17:11.635Z,5.77
2018-04-11T06:18:11.587Z,5.77
2018-04-11T06:19:11.555Z,5.79
2018-04-11T06:20:11.535Z,5.78
2018-04-11T06:21:11.541Z,5.77
2018-04-11T06:22:11.558Z,5.79
2018-04-11T06:23:11.472Z,5.79
2018-04-11T06:24:11.428Z,5.78
2018-04-11T06:25:11.418Z,5.79
2018-04-11T06:26:11.382Z,5.79
2018-04-11T06:27:11.366Z,5.79
2018-04-11T06:28:11.553Z,5.79
2018-04-11T06:29:11.321Z,5.79
2018-04-11T06:30:12.435Z,5.79
2018-04-11T06:31:11.301Z,5.79
2018-04-11T06:32:11.322Z,5.78
2018-04-11T06:33:11.229Z,5.78
2018-04-11T06:34:11.335Z,5.79
2018-04-11T06:35:11.218Z,5.79
2018-04-11T06:36:11.256Z,5.77
2018-04-11T06:37:11.144Z,5.79
2018-04-11T06:38:11.269Z,5.79
2018-04-11T06:39:11.106Z,5.77
2018-04-11T06:40:11.165Z,5.79
2018-04-11T06:41:11.048Z,5.77
2018-04-11T06:42:11.108Z,5.77
2018-04-11T06:43:11.023Z,5.79
2018-04-11T06:44:11.103Z,5.79
2018-04-11T06:45:10.943Z,5.79
2018-04-11T06:46:11.010Z,5.79
2018-04-11T06:47:10.902Z,5.79
2018-04-11T06:48:10.999Z,5.78
2018-04-11T06:49:10.853Z,5.79
2018-04-11T06:50:10.904Z,5.79
2018-04-11T06:51:10.812Z,5.79
2018-04-11T06:52:10.940Z,5.79
2018-04-11T06:53:10.783Z,5.79
2018-04-11T06:54:10.850Z,5.79
2018-04-11T06:55:10.736Z,5.79
2018-04-11T06:56:11.782Z,5.79
2018-04-11T06:57:10.651Z,5.79
2018-04-11T06:58:10.773Z,5.79
2018-04-11T06:59:10.618Z,5.79
2018-04-11T07:00:10.673Z,4.54
2018-04-11T07:01:10.589Z,3.27
2018-04-11T07:02:10.676Z,1.93
2018-04-11T07:03:10.515Z,1.53
2018-04-11T07:04:10.599Z,0.82
2018-04-11T07:05:10.470Z,2.41
2018-04-11T07:06:10.528Z,1.91
2018-04-11T07:07:10.430Z,0.94
2018-04-11T07:08:10.499Z,5.25
2018-04-11T07:09:10.471Z,5.59
2018-04-11T07:10:15.160Z,5.79
2018-04-11T07:11:10.403Z,5.80
2018-04-11T07:12:11.366Z,5.79
2018-04-11T07:13:10.281Z,5.76
2018-04-11T07:14:11.467Z,5.80
2018-04-11T07:15:10.273Z,5.79
2018-04-11T07:16:10.280Z,5.79
2018-04-11T07:17:10.205Z,5.79
2018-04-11T07:18:10.273Z,5.79
2018-04-11T07:19:10.143Z,5.80
2018-04-11T07:20:10.206Z,4.97
2018-04-11T07:21:10.123Z,5.36
2018-04-11T07:22:10.172Z,5.65
2018-04-11T07:23:10.042Z,5.24
2018-04-11T07:24:10.126Z,4.36
2018-04-11T07:25:10.035Z,5.03
2018-04-11T07:26:10.081Z,5.79
2018-04-11T07:27:09.984Z,5.80
2018-04-11T07:28:10.042Z,5.71
2018-04-11T07:29:09.940Z,5.76
2018-04-11T07:30:24.711Z,5.49
2018-04-11T07:31:09.925Z,5.79
2018-04-11T07:32:11.882Z,5.25
2018-04-11T07:33:10.003Z,5.79
2018-04-11T07:34:31.905Z,5.80
2018-04-11T07:35:09.816Z,5.80
2018-04-11T07:36:41.752Z,5.80
2018-04-11T07:37:09.711Z,5.80
2018-04-11T07:38:09.728Z,5.80
2018-04-11T07:39:33.662Z,5.80
2018-04-11T07:40:09.727Z,5.80
2018-04-11T07:41:14.731Z,5.80
2018-04-11T07:42:09.665Z,5.80
2018-04-11T07:43:20.195Z,5.80
2018-04-11T07:44:09.577Z,5.80
2018-04-11T08:07:30.629Z,5.81
2018-04-11T08:08:30.679Z,5.82
2018-04-11T08:09:30.602Z,5.82
2018-04-11T08:10:30.556Z,5.82
2018-04-11T08:11:30.549Z,5.82
2018-04-11T08:12:30.453Z,5.82
2018-04-11T08:13:30.457Z,5.82
2018-04-11T08:14:30.416Z,5.82
2018-04-11T08:15:31.527Z,5.82
2018-04-11T08:16:30.455Z,5.82
2018-04-11T08:17:37.132Z,5.82
2018-04-11T08:18:30.344Z,5.82
2018-04-11T08:19:51.307Z,5.82
2018-04-11T08:20:30.274Z,5.83
2018-04-11T08:21:31.312Z,5.83
2018-04-11T08:22:30.245Z,5.82
2018-04-11T08:23:35.137Z,5.82
2018-04-11T08:24:30.221Z,5.82
2018-04-11T08:25:37.210Z,5.82
2018-04-11T08:26:30.195Z,5.83
2018-04-11T08:28:08.190Z,5.82
2018-04-11T08:28:30.132Z,5.83
2018-04-11T08:29:30.087Z,5.82
2018-04-11T08:30:31.137Z,5.83
2018-04-11T08:31:30.056Z,5.82
2018-04-11T08:32:32.089Z,5.83
2018-04-11T08:33:30.017Z,5.82
2018-04-11T08:34:32.096Z,5.83
2018-04-11T08:35:29.930Z,5.83
2018-04-11T08:36:30.013Z,5.83
2018-04-11T08:37:29.875Z,5.83
2018-04-11T08:38:35.645Z,5.83
2018-04-11T08:39:29.828Z,5.83
2018-04-11T08:40:34.636Z,5.83
2018-04-11T08:41:29.872Z,5.83
2018-04-11T08:42:29.889Z,5.83
2018-04-11T08:43:29.744Z,5.83
2018-04-11T08:44:34.683Z,5.83
2018-04-11T08:45:29.733Z,5.83
2018-04-11T08:46:35.654Z,5.83
2018-04-11T08:47:29.656Z,5.83
2018-04-11T08:48:45.663Z,5.83
2018-04-11T08:49:29.661Z,5.83
2018-04-11T08:50:29.693Z,5.83
2018-04-11T08:51:29.561Z,5.83
2018-04-11T08:52:30.688Z,5.83
2018-04-11T08:53:29.552Z,5.83
2018-04-11T08:54:31.561Z,5.84
2018-04-11T08:55:29.482Z,5.83
2018-04-11T08:56:29.519Z,5.83
2018-04-11T08:57:29.465Z,5.83
2018-04-11T08:58:29.434Z,5.83
2018-04-11T08:59:29.388Z,5.83
2018-04-11T09:00:29.447Z,5.83
2018-04-11T09:01:29.376Z,5.84
2018-04-11T09:02:29.354Z,5.85
2018-04-11T09:03:29.291Z,5.85
2018-04-11T09:04:29.353Z,5.85
2018-04-11T09:05:29.296Z,5.84
2018-04-11T09:06:29.270Z,5.83
2018-04-11T09:07:29.197Z,5.85
2018-04-11T09:08:29.234Z,5.83
2018-04-11T09:09:29.132Z,5.83
2018-04-11T09:10:29.197Z,5.85
2018-04-11T09:11:29.111Z,5.83
2018-04-11T09:12:29.102Z,5.83
2018-04-11T09:13:29.048Z,5.83
2018-04-11T09:14:29.128Z,5.84
2018-04-11T09:15:29.012Z,5.85
2018-04-11T09:16:29.036Z,5.85
2018-04-11T09:17:28.978Z,5.85
2018-04-11T09:18:29.040Z,5.85
2018-04-11T09:19:28.934Z,5.85
2018-04-11T09:20:28.957Z,5.85
2018-04-11T09:21:28.882Z,5.85
2018-04-11T09:22:28.856Z,5.85
2018-04-11T09:23:28.834Z,5.85
2018-04-11T09:24:28.878Z,5.85
2018-04-11T09:25:28.808Z,5.85
2018-04-11T09:26:28.793Z,5.85
2018-04-11T09:27:28.766Z,5.86
2018-04-11T09:28:28.810Z,5.85
2018-04-11T09:29:28.692Z,5.85
2018-04-11T09:30:28.704Z,5.85
2018-04-11T09:31:28.684Z,5.85
2018-04-11T09:32:28.731Z,5.86
2018-04-11T09:33:28.580Z,5.85
2018-04-11T09:34:28.648Z,5.85
2018-04-11T09:35:28.599Z,5.85
2018-04-11T09:36:29.594Z,5.85
2018-04-11T09:37:28.546Z,5.87
2018-04-11T09:38:28.559Z,5.85
2018-04-11T09:39:28.462Z,5.86
2018-04-11T09:40:28.462Z,5.87
2018-04-11T09:41:28.441Z,5.87
2018-04-11T09:42:28.511Z,5.87
2018-04-11T09:43:28.357Z,5.86
2018-04-11T09:44:28.403Z,5.87
2018-04-11T09:45:28.342Z,5.87
2018-04-11T09:46:28.418Z,5.87
2018-04-11T09:47:28.299Z,5.87
2018-04-11T09:48:28.339Z,5.87
2018-04-11T09:49:28.254Z,5.87
2018-04-11T09:50:28.244Z,5.86
2018-04-11T09:51:28.191Z,5.87
2018-04-11T09:52:28.249Z,5.87
2018-04-11T09:53:28.132Z,5.87
2018-04-11T09:54:28.169Z,5.88
2018-04-11T09:55:28.110Z,5.87
2018-04-11T09:56:28.158Z,5.88
2018-04-11T09:57:28.091Z,5.88
2018-04-11T09:58:28.076Z,5.88
2018-04-11T09:59:28.003Z,5.88
2018-04-11T10:00:28.144Z,5.88
2018-04-11T10:01:27.967Z,4.40
2018-04-11T10:02:27.992Z,0.00
2018-04-11T10:03:27.933Z,0.00
2018-04-11T10:04:28.007Z,0.00
2018-04-11T10:05:27.916Z,0.00
2018-04-11T10:06:27.921Z,0.01
2018-04-11T10:07:27.868Z,0.00
2018-04-11T10:08:27.866Z,0.36
2018-04-11T10:09:27.820Z,0.01
2018-04-11T10:10:27.860Z,0.03
2018-04-11T10:11:27.750Z,0.00
2018-04-11T10:12:27.739Z,0.00
2018-04-11T10:13:27.696Z,0.19
2018-04-11T10:14:27.840Z,3.77
2018-04-11T10:15:27.674Z,4.84
2018-04-11T10:16:27.773Z,5.88
2018-04-11T10:17:27.627Z,5.87
2018-04-11T10:18:27.698Z,5.88
2018-04-11T10:19:27.561Z,5.80
2018-04-11T10:20:27.697Z,5.88
2018-04-11T10:21:27.533Z,5.88
2018-04-11T10:22:27.608Z,5.88
2018-04-11T10:23:27.471Z,5.88
2018-04-11T10:24:27.623Z,5.88
2018-04-11T10:25:27.430Z,5.88
2018-04-11T10:26:27.518Z,5.90
2018-04-11T10:27:27.417Z,5.90
2018-04-11T10:28:27.448Z,5.90
2018-04-11T10:29:27.352Z,5.90
2018-04-11T10:30:27.354Z,5.88
2018-04-11T10:31:27.348Z,5.90
2018-04-11T10:32:27.362Z,5.90
2018-04-11T10:33:27.255Z,5.88
2018-04-11T10:34:27.289Z,4.63
2018-04-11T10:35:27.196Z,5.88
2018-04-11T10:36:27.306Z,5.88
2018-04-11T10:37:27.180Z,5.87
2018-04-11T10:38:27.247Z,5.88
2018-04-11T10:39:27.203Z,5.49
2018-04-11T10:40:27.216Z,5.87
2018-04-11T10:41:27.071Z,5.88
2018-04-11T10:42:27.155Z,5.88
2018-04-11T10:43:27.013Z,5.88
2018-04-11T10:44:27.071Z,5.88
2018-04-11T10:45:26.989Z,5.88
2018-04-11T10:46:26.957Z,5.27
2018-04-11T10:47:26.945Z,1.70
2018-04-11T10:48:26.975Z,2.22
2018-04-11T10:49:26.919Z,2.10
2018-04-11T10:50:26.891Z,5.88
2018-04-11T10:51:26.900Z,5.90
2018-04-11T10:52:27.850Z,5.88
2018-04-11T10:53:26.809Z,5.80
2018-04-11T10:54:26.798Z,5.74
2018-04-11T10:55:26.753Z,5.87
2018-04-11T10:56:26.810Z,5.79
2018-04-11T10:57:26.740Z,5.31
2018-04-11T10:58:26.723Z,5.34
2018-04-11T10:59:26.790Z,5.77
2018-04-11T11:00:26.719Z,5.68
2018-04-11T11:01:26.636Z,4.52
2018-04-11T11:02:26.641Z,5.30
2018-04-11T11:03:26.568Z,4.99
2018-04-11T11:04:26.653Z,5.90
2018-04-11T11:05:26.514Z,3.13
2018-04-11T11:06:26.518Z,5.88
2018-04-11T11:07:26.561Z,5.79
2018-04-11T11:08:26.568Z,5.63
2018-04-11T11:09:26.442Z,5.30
2018-04-11T11:10:26.481Z,4.98
2018-04-11T11:11:26.388Z,5.45
2018-04-11T11:12:26.399Z,5.60
2018-04-11T11:13:26.363Z,5.90
2018-04-11T11:14:26.405Z,5.11
2018-04-11T11:15:26.319Z,5.27
2018-04-11T11:16:26.344Z,5.90
2018-04-11T11:17:26.282Z,5.90
2018-04-11T11:18:26.339Z,5.88
2018-04-11T11:19:26.211Z,5.88
2018-04-11T11:20:26.240Z,5.88
2018-04-11T11:21:26.190Z,5.88
2018-04-11T11:22:26.261Z,5.89
2018-04-11T11:23:26.143Z,5.88
2018-04-11T11:24:26.201Z,5.90
2018-04-11T11:25:26.078Z,5.88
2018-04-11T11:26:26.168Z,5.89
2018-04-11T11:27:26.041Z,5.88
2018-04-11T11:28:26.089Z,5.88
2018-04-11T11:29:26.031Z,5.90
2018-04-11T11:30:25.999Z,5.90
2018-04-11T11:31:25.948Z,5.88
2018-04-11T11:32:27.071Z,5.90
2018-04-11T11:33:25.949Z,5.90
2018-04-11T11:34:25.920Z,5.88
2018-04-11T11:35:25.936Z,5.90
2018-04-11T11:36:25.875Z,5.89
2018-04-11T11:37:25.852Z,5.90
2018-04-11T11:38:25.819Z,5.90
2018-04-11T11:39:25.859Z,5.90
2018-04-11T11:40:25.754Z,5.90
2018-04-11T11:41:25.763Z,5.90
2018-04-11T11:42:25.714Z,5.88
2018-04-11T11:43:25.773Z,5.88
2018-04-11T11:44:25.671Z,5.88
2018-04-11T11:45:25.636Z,5.88
2018-04-11T11:46:25.621Z,5.88
2018-04-11T11:47:25.706Z,5.88
2018-04-11T11:48:25.607Z,5.88
2018-04-11T11:49:25.645Z,4.56
2018-04-11T11:50:25.529Z,5.88
2018-04-11T11:51:25.525Z,5.88
2018-04-11T11:52:25.489Z,5.88
2018-04-11T11:53:25.530Z,5.24
2018-04-11T11:54:25.438Z,5.87
2018-04-11T11:55:25.446Z,5.88
2018-04-11T11:56:25.394Z,5.88
2018-04-11T11:57:25.466Z,5.88
2018-04-11T11:58:25.351Z,5.88
2018-04-11T11:59:25.370Z,4.39
2018-04-11T12:00:25.298Z,4.27
2018-04-11T12:01:25.377Z,5.87
2018-04-11T12:02:25.263Z,3.53
2018-04-11T12:03:25.288Z,5.54
2018-04-11T12:04:25.228Z,5.87
2018-04-11T12:05:25.295Z,1.31
2018-04-11T12:06:25.166Z,5.82
2018-04-11T12:07:25.208Z,5.69
2018-04-11T12:08:25.114Z,5.83
2018-04-11T12:09:25.125Z,5.88
2018-04-11T12:10:25.073Z,5.82
2018-04-11T12:11:27.082Z,5.74
2018-04-11T12:12:25.036Z,5.88
2018-04-11T12:13:25.048Z,5.89
2018-04-11T12:14:25.004Z,5.09
2018-04-11T12:15:25.060Z,5.88
2018-04-11T12:16:24.939Z,5.65
2018-04-11T12:17:24.990Z,4.90
2018-04-11T12:18:24.907Z,5.90
2018-04-11T12:19:25.029Z,5.88
2018-04-11T12:20:24.853Z,5.17
2018-04-11T12:21:24.914Z,5.87
2018-04-11T12:22:24.808Z,5.88
2018-04-11T12:23:24.801Z,5.90
2018-04-11T12:24:24.788Z,5.90
2018-04-11T12:25:24.820Z,5.90
2018-04-11T12:26:24.751Z,5.40
2018-04-11T12:27:24.730Z,4.75
2018-04-11T12:28:24.674Z,4.27
2018-04-11T12:29:24.741Z,4.07
2018-04-11T12:30:24.627Z,3.58
2018-04-11T12:31:24.656Z,4.58
2018-04-11T12:32:24.595Z,2.91
2018-04-11T12:33:26.607Z,5.91
2018-04-11T12:34:24.538Z,5.91
2018-04-11T12:35:25.600Z,3.20
2018-04-11T12:36:24.508Z,2.97
2018-04-11T12:37:25.526Z,1.89
2018-04-11T12:38:24.453Z,3.40
2018-04-11T12:39:26.552Z,3.38
2018-04-11T12:40:24.400Z,4.41
2018-04-11T12:41:25.442Z,3.83
2018-04-11T12:42:24.433Z,4.76
2018-04-11T12:43:24.421Z,5.04
2018-04-11T12:44:24.318Z,5.80
2018-04-11T12:45:24.295Z,3.70
2018-04-11T12:46:24.441Z,5.62
2018-04-11T12:47:24.246Z,5.90
2018-04-11T12:48:26.404Z,5.90
2018-04-11T12:49:24.211Z,5.14
2018-04-11T12:50:24.267Z,0.45
2018-04-11T12:51:24.169Z,0.63
2018-04-11T12:52:26.220Z,5.88
2018-04-11T12:53:24.126Z,5.90
2018-04-11T12:54:24.190Z,0.95
2018-04-11T12:55:24.105Z,5.90
2018-04-11T12:56:24.100Z,5.90
2018-04-11T12:57:24.024Z,5.87
2018-04-11T12:58:24.103Z,3.25
2018-04-11T12:59:23.992Z,5.90
2018-04-11T13:00:24.021Z,5.36
2018-04-11T13:01:23.938Z,5.90
2018-04-11T13:02:24.043Z,5.90
2018-04-11T13:03:23.909Z,5.31
2018-04-11T13:04:29.693Z,5.37
2018-04-11T13:05:23.873Z,3.78
2018-04-11T13:06:24.169Z,4.27
2018-04-11T13:07:23.822Z,5.88
2018-04-11T13:08:29.821Z,5.88
2018-04-11T13:09:23.835Z,5.88
2018-04-11T13:10:23.740Z,5.87
2018-04-11T13:11:23.799Z,5.88
2018-04-11T13:12:23.694Z,5.79
2018-04-11T13:13:23.699Z,5.88
2018-04-11T13:14:23.870Z,5.88
2018-04-11T13:15:23.812Z,5.87
2018-04-11T13:16:23.903Z,5.88
2018-04-11T13:17:23.630Z,0.77
2018-04-11T13:18:23.957Z,1.72
2018-04-11T13:19:23.635Z,5.33
2018-04-11T13:20:59.339Z,5.83
2018-04-11T13:21:55.144Z,4.80
2018-04-11T13:22:54.887Z,5.79
2018-04-11T13:23:54.792Z,4.98
2018-04-11T13:24:54.768Z,5.88
2018-04-11T13:25:54.812Z,5.66
2018-04-11T13:26:54.712Z,5.88
2018-04-11T13:27:54.717Z,5.88
2018-04-11T13:28:54.661Z,5.88
2018-04-11T13:29:54.733Z,5.37
2018-04-11T13:30:54.621Z,5.88
2018-04-11T13:31:54.630Z,5.88
2018-04-11T13:32:54.568Z,5.26
2018-04-11T13:33:55.672Z,4.43
2018-04-11T13:34:54.525Z,2.95
2018-04-11T13:35:54.569Z,4.44
2018-04-11T13:36:54.494Z,2.54
2018-04-11T13:37:54.557Z,2.89
2018-04-11T13:38:54.489Z,3.87
2018-04-11T13:39:54.485Z,0.48
2018-04-11T13:40:54.416Z,5.12